Time;durP1;ratioP1;P1;durP2;ratioP2;P2;SDS_P1;SDS_P2;PMS_P1;PMS_P2;Temp;Humidity;BMP_temperature;BMP_pressure;BME280_temperature;BME280_humidity;BME280_pressure;Samples;Min_cycle;Max_cycle;Signal;HPM_P1;HPM_P2
2020/12/06 00:03:07;;;;;;;31.10;15.67;;;2.90;99.90;;;;;;5091603;28;20228;-82
2020/12/06 00:05:34;;;;;;;32.43;16.07;;;2.90;99.90;;;;;;5136211;23;20249;-82
2020/12/06 00:08:08;;;;;;;29.47;14.97;;;2.90;99.90;;;;;;5090801;28;20187;-82
2020/12/06 00:10:47;;;;;;;33.60;17.53;;;3.00;99.90;;;;;;5121034;22;20293;-82
2020/12/06 00:13:12;;;;;;;34.70;16.67;;;3.00;99.90;;;;;;5116699;28;20198;-81
2020/12/06 00:15:38;;;;;;;32.07;16.73;;;2.90;99.90;;;;;;5115119;28;20674;-81
2020/12/06 00:18:04;;;;;;;32.70;15.77;;;3.00;99.90;;;;;;5110912;28;20178;-82
2020/12/06 00:20:35;;;;;;;30.47;15.57;;;3.00;99.90;;;;;;5113537;28;20174;-82
2020/12/06 00:23:01;;;;;;;33.77;16.90;;;2.90;99.90;;;;;;5111296;28;20186;-80
2020/12/06 00:25:27;;;;;;;33.53;16.67;;;3.00;99.90;;;;;;5108792;28;20219;-80
2020/12/06 00:27:53;;;;;;;30.70;16.20;;;3.00;99.90;;;;;;5110369;28;20182;-79
2020/12/06 00:30:18;;;;;;;30.83;15.63;;;3.00;99.90;;;;;;5115225;28;20180;-80
2020/12/06 00:32:44;;;;;;;32.70;16.07;;;3.00;99.90;;;;;;5116427;28;20201;-80
2020/12/06 00:35:10;;;;;;;29.63;15.63;;;3.00;99.90;;;;;;5114052;28;20735;-80
2020/12/06 00:37:39;;;;;;;32.07;16.50;;;3.00;99.90;;;;;;5111846;28;20197;-80
2020/12/06 00:40:08;;;;;;;29.03;14.60;;;3.00;99.90;;;;;;5111113;28;20177;-80
2020/12/06 00:42:34;;;;;;;28.03;14.87;;;3.00;99.90;;;;;;5113358;28;20239;-80
2020/12/06 00:45:00;;;;;;;33.03;15.67;;;3.00;99.90;;;;;;5115945;28;20245;-79
2020/12/06 00:47:25;;;;;;;26.23;14.03;;;3.00;99.90;;;;;;5116498;28;20233;-79
2020/12/06 00:49:51;;;;;;;31.17;14.97;;;3.00;99.90;;;;;;5115416;28;20181;-80
2020/12/06 00:52:16;;;;;;;35.13;15.87;;;3.00;99.90;;;;;;5115449;28;20229;-80
2020/12/06 00:54:42;;;;;;;30.37;14.83;;;3.00;99.90;;;;;;5114630;28;20204;-80
2020/12/06 00:57:08;;;;;;;29.77;14.60;;;2.90;99.90;;;;;;5114280;28;20178;-80
2020/12/06 00:59:33;;;;;;;29.50;14.93;;;2.90;99.90;;;;;;5113482;28;20178;-80
2020/12/06 01:01:59;;;;;;;31.10;15.43;;;2.90;99.90;;;;;;5092268;28;20186;-81
2020/12/06 01:04:24;;;;;;;29.90;14.67;;;2.70;99.90;;;;;;5090302;28;20201;-81
2020/12/06 01:06:50;;;;;;;27.10;14.30;;;2.70;99.90;;;;;;5091220;28;20191;-80
2020/12/06 01:09:16;;;;;;;31.67;14.93;;;2.80;99.90;;;;;;5093641;28;20183;-80
2020/12/06 01:11:41;;;;;;;24.43;12.90;;;2.80;99.90;;;;;;5094008;28;20210;-80
2020/12/06 01:14:07;;;;;;;26.70;14.37;;;2.80;99.90;;;;;;5091334;28;20197;-80
2020/12/06 01:16:32;;;;;;;25.90;13.57;;;2.90;99.90;;;;;;5087658;28;20174;-80
2020/12/06 01:18:58;;;;;;;25.77;13.23;;;3.00;99.90;;;;;;5083225;28;20175;-80
2020/12/06 01:21:23;;;;;;;26.07;13.70;;;3.00;99.90;;;;;;5086773;28;20189;-80
2020/12/06 01:23:49;;;;;;;24.57;12.60;;;2.90;99.90;;;;;;5095139;28;20173;-80
2020/12/06 01:26:14;;;;;;;25.83;13.17;;;2.90;99.90;;;;;;5095051;28;20175;-79
2020/12/06 01:28:40;;;;;;;24.73;12.57;;;2.80;99.90;;;;;;5094304;28;20205;-81
2020/12/06 01:31:07;;;;;;;32.90;15.70;;;2.90;99.90;;;;;;5089119;28;20202;-80
2020/12/06 01:33:33;;;;;;;30.33;14.07;;;2.80;99.90;;;;;;5085901;28;20175;-80
2020/12/06 01:35:58;;;;;;;26.83;14.77;;;2.70;99.90;;;;;;5088278;28;20195;-80
2020/12/06 01:38:24;;;;;;;31.60;14.77;;;2.60;99.90;;;;;;5090013;28;20186;-79
2020/12/06 01:40:49;;;;;;;26.77;13.30;;;2.70;99.90;;;;;;5093237;28;20190;-80
2020/12/06 01:43:15;;;;;;;30.13;14.17;;;2.80;99.90;;;;;;5085930;28;20171;-80
2020/12/06 01:45:41;;;;;;;28.57;15.07;;;2.80;99.90;;;;;;5082570;28;20575;-80
2020/12/06 01:48:07;;;;;;;26.47;13.50;;;2.80;99.90;;;;;;5090247;28;20224;-80
2020/12/06 01:50:35;;;;;;;29.07;14.33;;;2.80;99.90;;;;;;5092266;28;20175;-79
2020/12/06 01:53:01;;;;;;;26.57;13.20;;;2.70;99.90;;;;;;5095467;28;20261;-80
2020/12/06 01:55:26;;;;;;;27.97;13.77;;;2.70;99.90;;;;;;5094457;28;20198;-79
2020/12/06 01:58:07;;;;;;;26.80;14.10;;;2.80;99.90;;;;;;5092844;28;20182;-80
2020/12/06 02:00:34;;;;;;;26.07;13.53;;;2.80;99.90;;;;;;5092283;28;20171;-80
2020/12/06 02:03:00;;;;;;;29.30;13.83;;;2.90;99.90;;;;;;5091169;28;20202;-80
2020/12/06 02:05:30;;;;;;;28.20;15.60;;;2.90;99.90;;;;;;5092900;28;20247;-81
2020/12/06 02:07:59;;;;;;;29.40;14.63;;;2.80;99.90;;;;;;5086834;28;20186;-80
2020/12/06 02:10:29;;;;;;;28.60;14.73;;;2.80;99.90;;;;;;5086458;28;20195;-80
2020/12/06 02:12:55;;;;;;;27.73;14.90;;;2.70;99.90;;;;;;5084223;28;20224;-80
2020/12/06 02:15:21;;;;;;;29.67;14.37;;;2.50;99.90;;;;;;5089455;28;20202;-80
2020/12/06 02:17:47;;;;;;;33.57;17.57;;;2.50;99.90;;;;;;5094761;28;20250;-80
2020/12/06 02:20:13;;;;;;;27.33;14.30;;;2.60;99.90;;;;;;5088806;28;20175;-80
2020/12/06 02:22:38;;;;;;;32.80;17.57;;;2.60;99.90;;;;;;5094692;28;20201;-80
2020/12/06 02:25:04;;;;;;;32.83;16.73;;;2.60;99.90;;;;;;5087566;28;20209;-80
2020/12/06 02:27:30;;;;;;;28.07;14.73;;;2.60;99.90;;;;;;5089920;28;20623;-80
2020/12/06 02:29:56;;;;;;;31.63;16.27;;;2.70;99.90;;;;;;5088532;28;20273;-80
2020/12/06 02:32:22;;;;;;;31.20;14.77;;;2.80;99.90;;;;;;5090433;28;20202;-80
2020/12/06 02:34:47;;;;;;;34.13;16.20;;;2.80;99.90;;;;;;5088752;28;20341;-80
2020/12/06 02:37:13;;;;;;;32.10;15.70;;;2.90;99.90;;;;;;5090979;28;20696;-79
2020/12/06 02:39:39;;;;;;;26.83;14.43;;;2.90;99.90;;;;;;5091324;28;20179;-80
2020/12/06 02:42:04;;;;;;;25.77;13.17;;;2.90;99.90;;;;;;5090334;28;20179;-80
2020/12/06 02:44:30;;;;;;;30.10;14.83;;;2.90;99.90;;;;;;5084157;28;20308;-80
2020/12/06 02:46:56;;;;;;;29.67;14.80;;;2.80;99.90;;;;;;5080396;28;20183;-79
2020/12/06 02:49:21;;;;;;;30.70;15.57;;;2.90;99.90;;;;;;5080084;28;20186;-80
2020/12/06 02:51:47;;;;;;;32.37;16.20;;;2.80;99.90;;;;;;5079297;28;20202;-80
2020/12/06 02:54:12;;;;;;;28.80;15.27;;;2.80;99.90;;;;;;5076682;28;20194;-80
2020/12/06 02:56:38;;;;;;;24.70;13.47;;;2.80;99.90;;;;;;5078507;28;20174;-80
2020/12/06 02:59:03;;;;;;;26.60;12.97;;;2.90;99.90;;;;;;5080456;28;20171;-80
2020/12/06 03:01:32;;;;;;;26.30;13.43;;;2.80;99.90;;;;;;5082606;28;20238;-80
2020/12/06 03:03:58;;;;;;;26.37;12.97;;;2.90;99.90;;;;;;5086831;28;20232;-80
2020/12/06 03:06:24;;;;;;;27.43;13.97;;;2.90;99.90;;;;;;5090722;28;20198;-80
2020/12/06 03:08:50;;;;;;;25.50;13.40;;;2.90;99.90;;;;;;5090094;28;20556;-81
2020/12/06 03:11:16;;;;;;;26.80;13.50;;;2.90;99.90;;;;;;5083485;28;20272;-81
2020/12/06 03:13:42;;;;;;;30.13;14.77;;;2.90;99.90;;;;;;5091238;28;20167;-80
2020/12/06 03:16:07;;;;;;;32.47;16.73;;;3.00;99.90;;;;;;5086491;28;20171;-80
2020/12/06 03:18:33;;;;;;;30.70;15.30;;;3.00;99.90;;;;;;5093046;28;20181;-80
2020/12/06 03:20:59;;;;;;;30.17;14.37;;;3.00;99.90;;;;;;5097154;28;20187;-80
2020/12/06 03:23:25;;;;;;;28.50;13.80;;;3.00;99.90;;;;;;5092383;28;20174;-80
2020/12/06 03:25:50;;;;;;;25.60;13.00;;;3.00;99.90;;;;;;5090922;28;20203;-80
2020/12/06 03:28:16;;;;;;;28.43;15.17;;;3.10;99.90;;;;;;5092502;28;20187;-80
2020/12/06 03:30:42;;;;;;;32.17;16.47;;;3.00;99.90;;;;;;5090524;28;20632;-80
2020/12/06 03:33:07;;;;;;;30.63;15.27;;;3.00;99.90;;;;;;5091777;28;20207;-80
2020/12/06 03:35:33;;;;;;;36.73;18.43;;;3.10;99.90;;;;;;5091293;28;20710;-80
2020/12/06 03:37:58;;;;;;;34.27;16.80;;;3.10;99.90;;;;;;5091421;28;20189;-80
2020/12/06 03:40:24;;;;;;;28.50;14.53;;;3.10;99.90;;;;;;5090802;28;20171;-80
2020/12/06 03:42:50;;;;;;;32.37;16.30;;;3.20;99.90;;;;;;5088449;28;20205;-80
2020/12/06 03:45:17;;;;;;;31.43;15.57;;;3.20;99.90;;;;;;5089761;28;20203;-80
2020/12/06 03:47:42;;;;;;;29.70;15.40;;;3.20;99.90;;;;;;5087390;28;20171;-80
2020/12/06 03:50:08;;;;;;;28.20;14.53;;;3.20;99.90;;;;;;5087415;28;20547;-80
2020/12/06 03:52:33;;;;;;;31.43;15.73;;;3.20;99.90;;;;;;5081476;28;20207;-80
2020/12/06 03:54:59;;;;;;;29.87;15.60;;;3.30;99.90;;;;;;5082943;28;20195;-81
2020/12/06 03:57:24;;;;;;;29.10;14.33;;;3.30;99.90;;;;;;5082169;28;20659;-80
2020/12/06 03:59:50;;;;;;;27.77;14.23;;;3.30;99.90;;;;;;5088822;28;21146;-80
2020/12/06 04:02:17;;;;;;;27.10;14.33;;;3.40;99.90;;;;;;5089250;28;20209;-80
2020/12/06 04:04:43;;;;;;;25.97;13.63;;;3.40;99.90;;;;;;5089704;28;20221;-80
2020/12/06 04:07:08;;;;;;;23.63;13.43;;;3.40;99.90;;;;;;5077550;28;20179;-79
2020/12/06 04:09:34;;;;;;;23.63;12.00;;;3.40;99.90;;;;;;5081749;28;20198;-79
2020/12/06 04:11:59;;;;;;;29.10;15.33;;;3.40;99.90;;;;;;5078711;28;20206;-80
2020/12/06 04:14:25;;;;;;;27.67;14.43;;;3.40;99.90;;;;;;5084526;28;20214;-80
2020/12/06 04:16:50;;;;;;;29.90;16.73;;;3.50;99.90;;;;;;5075786;28;20171;-80
2020/12/06 04:19:16;;;;;;;29.53;15.33;;;3.60;99.90;;;;;;5075915;28;20258;-79
2020/12/06 04:21:41;;;;;;;32.40;16.37;;;3.60;99.90;;;;;;5078491;28;20178;-80
2020/12/06 04:24:07;;;;;;;34.30;16.67;;;3.60;99.90;;;;;;5079292;28;20191;-80
2020/12/06 04:26:32;;;;;;;34.23;16.60;;;3.70;99.90;;;;;;5081898;28;20175;-81
2020/12/06 04:28:58;;;;;;;36.13;17.33;;;3.80;99.90;;;;;;5087369;28;20178;-80
2020/12/06 04:31:24;;;;;;;37.23;16.93;;;3.70;99.90;;;;;;5089740;28;20203;-80
2020/12/06 04:33:50;;;;;;;35.23;17.53;;;3.70;99.90;;;;;;5093099;28;20187;-80
2020/12/06 04:36:15;;;;;;;41.03;20.40;;;3.80;99.90;;;;;;5094070;28;20192;-81
2020/12/06 04:38:41;;;;;;;36.63;18.60;;;3.90;99.90;;;;;;5094159;28;20201;-80
2020/12/06 04:41:07;;;;;;;42.73;20.27;;;3.90;99.90;;;;;;5094037;28;20178;-80
2020/12/06 04:43:34;;;;;;;31.83;17.07;;;4.00;99.90;;;;;;5094386;28;20193;-80
2020/12/06 04:46:00;;;;;;;35.10;17.43;;;4.00;99.90;;;;;;5089376;28;20702;-80
2020/12/06 04:48:56;;;;;;;35.00;17.90;;;4.10;99.90;;;;;;5083893;28;20206;-80
2020/12/06 04:51:26;;;;;;;37.97;17.70;;;4.10;99.90;;;;;;5076967;28;20238;-80
2020/12/06 04:54:03;;;;;;;44.40;20.13;;;4.10;99.90;;;;;;5082842;28;20185;-80
2020/12/06 04:56:30;;;;;;;43.60;19.67;;;4.20;99.90;;;;;;5091644;28;20163;-80
2020/12/06 04:59:02;;;;;;;40.17;19.87;;;4.30;99.90;;;;;;5082161;28;20175;-79
2020/12/06 05:01:35;;;;;;;41.07;20.70;;;4.20;99.90;;;;;;5083632;28;20202;-80
2020/12/06 05:04:14;;;;;;;38.87;20.33;;;4.30;99.90;;;;;;5080090;28;20495;-81
2020/12/06 05:06:41;;;;;;;39.87;20.00;;;4.40;99.90;;;;;;5081298;28;20186;-81
2020/12/06 05:09:12;;;;;;;43.13;20.73;;;4.40;99.90;;;;;;5082111;28;20206;-80
2020/12/06 05:11:39;;;;;;;46.40;22.10;;;4.40;99.90;;;;;;5081549;28;20593;-80
2020/12/06 05:14:08;;;;;;;50.13;23.27;;;4.50;99.90;;;;;;5081872;28;20199;-81
2020/12/06 05:16:37;;;;;;;47.27;23.10;;;4.50;99.90;;;;;;5085550;28;20174;-80
2020/12/06 05:19:04;;;;;;;47.20;21.83;;;4.50;99.90;;;;;;5085708;28;20179;-79
2020/12/06 05:21:34;;;;;;;43.97;22.43;;;4.60;99.90;;;;;;5085156;28;20348;-80
2020/12/06 05:24:00;;;;;;;51.77;23.90;;;4.60;99.90;;;;;;5086692;28;20174;-80
2020/12/06 05:26:28;;;;;;;45.43;21.93;;;4.60;99.90;;;;;;5088579;28;20211;-79
2020/12/06 05:28:53;;;;;;;49.67;24.53;;;4.60;99.90;;;;;;5092594;28;20183;-80
2020/12/06 05:31:19;;;;;;;41.17;20.53;;;4.60;99.90;;;;;;5089787;28;20292;-80
2020/12/06 05:33:44;;;;;;;43.83;21.23;;;4.60;99.90;;;;;;5090260;28;20174;-80
2020/12/06 05:36:11;;;;;;;39.30;20.27;;;4.60;99.90;;;;;;5092603;28;20773;-79
2020/12/06 05:38:37;;;;;;;42.43;20.67;;;4.60;99.90;;;;;;5093021;28;20179;-80
2020/12/06 05:41:06;;;;;;;37.70;19.53;;;4.50;99.90;;;;;;5094108;28;20231;-80
2020/12/06 05:43:35;;;;;;;46.73;21.93;;;4.60;99.90;;;;;;5087412;28;20167;-79
2020/12/06 05:46:12;;;;;;;38.93;18.97;;;4.60;99.90;;;;;;5082843;28;20688;-80
2020/12/06 05:48:38;;;;;;;42.87;19.50;;;4.70;99.90;;;;;;5088594;28;20170;-81
2020/12/06 05:51:05;;;;;;;41.63;20.13;;;4.70;99.90;;;;;;5088481;28;20278;-80
2020/12/06 05:53:31;;;;;;;43.67;20.60;;;4.70;99.90;;;;;;5089253;28;20187;-79
2020/12/06 05:56:20;;;;;;;42.77;21.67;;;4.70;99.90;;;;;;5087625;28;20269;-80
2020/12/06 05:58:47;;;;;;;41.33;20.17;;;4.70;99.90;;;;;;5094648;28;20183;-79
2020/12/06 06:01:14;;;;;;;40.20;20.50;;;4.70;99.90;;;;;;5095084;28;20183;-79
2020/12/06 06:03:42;;;;;;;41.50;20.10;;;4.70;99.90;;;;;;5097392;28;20204;-80
2020/12/06 06:06:15;;;;;;;44.97;21.50;;;4.70;99.90;;;;;;5101381;28;20182;-80
2020/12/06 06:08:47;;;;;;;41.73;21.17;;;4.70;99.90;;;;;;5092641;28;20589;-80
2020/12/06 06:11:25;;;;;;;44.73;21.67;;;4.70;99.90;;;;;;5087278;28;20211;-81
2020/12/06 06:13:58;;;;;;;43.27;20.30;;;4.80;99.90;;;;;;5090104;28;20174;-80
2020/12/06 06:16:26;;;;;;;43.67;20.77;;;4.80;99.90;;;;;;5096311;28;20262;-80
2020/12/06 06:18:53;;;;;;;43.53;21.57;;;4.80;99.90;;;;;;5105188;28;20194;-80
2020/12/06 06:21:22;;;;;;;49.50;22.33;;;4.70;99.90;;;;;;5098086;28;20299;-82
2020/12/06 06:23:49;;;;;;;42.13;20.90;;;4.70;99.90;;;;;;5088290;28;20187;-82
2020/12/06 06:26:18;;;;;;;44.83;22.33;;;4.80;99.90;;;;;;5109065;28;20198;-81
2020/12/06 06:28:45;;;;;;;45.30;22.53;;;4.80;99.90;;;;;;5098662;28;20175;-81
2020/12/06 06:31:14;;;;;;;46.37;21.53;;;4.80;99.90;;;;;;5089066;28;20214;-81
2020/12/06 06:33:40;;;;;;;53.90;25.80;;;4.80;99.90;;;;;;5080190;28;20176;-81
2020/12/06 06:36:08;;;;;;;47.87;23.43;;;4.80;99.90;;;;;;5076284;28;20202;-82
2020/12/06 06:38:44;;;;;;;48.40;23.37;;;4.90;99.90;;;;;;5075953;28;20179;-82
2020/12/06 06:41:10;;;;;;;53.07;24.77;;;4.80;99.90;;;;;;5089364;28;20178;-82
2020/12/06 06:43:38;;;;;;;58.60;26.40;;;4.90;99.90;;;;;;5098150;28;20190;-82
2020/12/06 06:46:13;;;;;;;48.73;23.67;;;4.90;99.90;;;;;;5088783;28;20674;-79
2020/12/06 06:48:38;;;;;;;52.60;23.57;;;4.80;99.90;;;;;;5081404;28;20192;-80
2020/12/06 06:51:04;;;;;;;54.87;26.90;;;4.80;99.90;;;;;;5074129;28;20179;-80
2020/12/06 06:53:30;;;;;;;48.37;24.63;;;4.90;99.90;;;;;;5071967;28;20186;-80
2020/12/06 06:55:57;;;;;;;48.17;24.23;;;4.90;99.90;;;;;;5084305;28;20198;-80
2020/12/06 06:58:26;;;;;;;50.83;25.17;;;4.90;99.90;;;;;;5086003;28;20178;-80
2020/12/06 07:01:11;;;;;;;45.73;22.20;;;4.90;99.90;;;;;;5079965;28;20641;-80
2020/12/06 07:03:41;;;;;;;50.00;24.57;;;4.90;99.90;;;;;;5078044;28;20213;-80
2020/12/06 07:06:07;;;;;;;50.27;24.87;;;4.90;99.90;;;;;;5090672;28;20211;-81
2020/12/06 07:08:34;;;;;;;51.37;26.13;;;5.00;99.90;;;;;;5082626;28;20309;-80
2020/12/06 07:11:04;;;;;;;56.40;27.13;;;5.00;99.90;;;;;;5085609;28;20238;-80
2020/12/06 07:13:31;;;;;;;49.17;24.27;;;5.00;99.90;;;;;;5091791;28;20208;-80
2020/12/06 07:15:56;;;;;;;45.73;24.73;;;4.90;99.90;;;;;;5090808;28;20213;-80
2020/12/06 07:18:22;;;;;;;46.23;22.13;;;5.00;99.90;;;;;;5089752;28;20279;-79
2020/12/06 07:20:49;;;;;;;54.07;26.40;;;5.00;99.90;;;;;;5079625;28;20194;-80
2020/12/06 07:23:15;;;;;;;50.33;23.70;;;5.00;99.90;;;;;;5086748;28;20193;-80
2020/12/06 07:25:41;;;;;;;55.23;25.27;;;5.10;99.90;;;;;;5087100;28;20211;-80
2020/12/06 07:28:06;;;;;;;57.47;25.97;;;5.00;99.90;;;;;;5082696;28;20191;-80
2020/12/06 07:30:32;;;;;;;49.33;23.70;;;5.00;99.90;;;;;;5085849;28;20190;-80
2020/12/06 07:32:58;;;;;;;51.30;24.03;;;5.00;99.90;;;;;;5076222;28;20324;-80
2020/12/06 07:35:24;;;;;;;52.57;24.60;;;4.90;99.90;;;;;;5084619;28;20214;-80
2020/12/06 07:37:56;;;;;;;51.70;24.43;;;4.90;99.90;;;;;;5082972;28;20178;-80
2020/12/06 07:40:22;;;;;;;54.43;24.33;;;4.90;99.90;;;;;;5077278;28;20211;-80
2020/12/06 07:42:48;;;;;;;51.20;24.33;;;5.00;99.90;;;;;;5071615;28;20260;-79
2020/12/06 07:45:14;;;;;;;49.33;24.17;;;5.00;99.90;;;;;;5081353;28;20681;-80
2020/12/06 07:47:39;;;;;;;49.53;23.53;;;5.00;99.90;;;;;;5093334;28;20187;-80
2020/12/06 07:50:06;;;;;;;50.40;23.63;;;4.90;99.90;;;;;;5093837;28;20198;-81
2020/12/06 07:52:37;;;;;;;45.07;22.07;;;5.00;99.90;;;;;;5086238;28;20272;-81
2020/12/06 07:55:07;;;;;;;52.63;24.20;;;5.10;99.90;;;;;;5088788;28;20418;-80
2020/12/06 07:57:42;;;;;;;48.27;23.20;;;5.10;99.90;;;;;;5085639;28;20450;-80
2020/12/06 08:00:12;;;;;;;51.03;23.37;;;5.10;99.90;;;;;;5094055;28;20182;-80
2020/12/06 08:02:42;;;;;;;49.97;23.10;;;5.10;99.90;;;;;;5086649;28;20668;-78
2020/12/06 08:05:18;;;;;;;51.33;24.37;;;5.10;99.90;;;;;;5089906;28;20199;-80
2020/12/06 08:07:52;;;;;;;51.10;23.17;;;5.20;99.90;;;;;;5096051;28;20179;-80
2020/12/06 08:10:18;;;;;;;48.93;23.40;;;5.10;99.90;;;;;;5094137;28;20218;-80
2020/12/06 08:12:51;;;;;;;46.93;22.37;;;5.10;99.90;;;;;;5103706;28;20206;-80
2020/12/06 08:15:30;;;;;;;47.80;23.93;;;5.10;99.90;;;;;;5082120;27;20538;-82
2020/12/06 08:17:56;;;;;;;50.50;24.90;;;5.20;99.90;;;;;;5066750;28;20237;-81
2020/12/06 08:20:24;;;;;;;51.07;24.73;;;5.10;99.90;;;;;;5070121;28;20189;-81
2020/12/06 08:22:59;;;;;;;50.60;24.90;;;5.10;99.90;;;;;;5089443;28;20210;-80
2020/12/06 08:25:45;;;;;;;55.57;26.20;;;5.10;99.90;;;;;;5056830;28;20324;-81
2020/12/06 08:28:18;;;;;;;53.67;24.77;;;5.10;99.90;;;;;;5072112;28;20187;-80
2020/12/06 08:30:44;;;;;;;45.47;22.47;;;5.10;99.90;;;;;;5068691;28;20566;-80
2020/12/06 08:33:09;;;;;;;48.23;23.83;;;5.10;99.90;;;;;;5060327;28;20186;-79
2020/12/06 08:35:43;;;;;;;49.60;25.23;;;5.20;99.90;;;;;;5085879;28;20195;-82
2020/12/06 08:38:22;;;;;;;49.07;23.67;;;5.20;99.90;;;;;;5070398;28;20648;-81
2020/12/06 08:41:06;;;;;;;47.77;23.33;;;5.20;99.90;;;;;;5065960;28;20180;-83
2020/12/06 08:43:54;;;;;;;54.70;25.27;;;5.20;99.90;;;;;;5054802;28;20220;-81
2020/12/06 08:46:25;;;;;;;50.37;23.10;;;5.10;99.90;;;;;;5064639;28;20186;-81
2020/12/06 08:48:53;;;;;;;44.97;22.37;;;5.10;99.90;;;;;;5089002;28;20186;-79
2020/12/06 08:51:38;;;;;;;47.30;23.67;;;5.10;99.90;;;;;;5064496;28;20237;-80
2020/12/06 08:54:06;;;;;;;49.30;23.70;;;5.10;99.90;;;;;;5066679;28;20701;-80
2020/12/06 08:56:42;;;;;;;49.80;23.40;;;5.20;99.90;;;;;;5050971;28;20179;-79
2020/12/06 08:59:14;;;;;;;52.10;24.37;;;5.20;99.90;;;;;;5070806;28;20181;-80
2020/12/06 09:01:59;;;;;;;42.00;21.80;;;5.10;99.90;;;;;;5055353;28;20224;-80
2020/12/06 09:04:24;;;;;;;53.00;26.90;;;5.10;99.90;;;;;;5077351;28;20204;-80
2020/12/06 09:06:52;;;;;;;46.27;22.13;;;5.20;99.90;;;;;;5076077;28;21314;-79
2020/12/06 09:09:18;;;;;;;48.83;23.43;;;5.20;99.90;;;;;;5076633;28;20274;-81
2020/12/06 09:11:44;;;;;;;54.27;24.97;;;5.20;99.90;;;;;;5057617;28;20250;-81
2020/12/06 09:14:09;;;;;;;44.80;22.30;;;5.20;99.90;;;;;;5054930;28;20218;-79
2020/12/06 09:16:38;;;;;;;46.60;21.47;;;5.20;99.90;;;;;;5077695;28;20179;-82
2020/12/06 09:19:04;;;;;;;54.60;26.07;;;5.20;99.90;;;;;;5060688;28;20713;-78
2020/12/06 09:21:29;;;;;;;50.93;23.93;;;5.20;99.90;;;;;;5059811;28;20261;-78
2020/12/06 09:23:55;;;;;;;47.57;23.53;;;5.20;99.90;;;;;;5052701;28;20202;-80
2020/12/06 09:26:20;;;;;;;46.63;22.77;;;5.10;99.90;;;;;;5040571;28;20688;-80
2020/12/06 09:28:46;;;;;;;47.30;22.40;;;5.10;99.90;;;;;;5041393;28;20570;-81
2020/12/06 09:31:11;;;;;;;47.73;24.17;;;5.20;99.90;;;;;;5043592;28;20272;-81
2020/12/06 09:33:37;;;;;;;48.73;22.57;;;5.10;99.90;;;;;;5039801;28;20206;-81
2020/12/06 09:36:03;;;;;;;55.43;26.27;;;5.10;99.90;;;;;;5039073;28;20359;-79
2020/12/06 09:38:28;;;;;;;45.73;21.77;;;5.10;99.90;;;;;;5038217;28;20199;-80
2020/12/06 09:40:54;;;;;;;44.17;21.77;;;5.20;99.90;;;;;;5044110;28;20169;-82
2020/12/06 09:43:20;;;;;;;52.63;24.47;;;5.20;99.90;;;;;;5052208;28;20718;-80
2020/12/06 09:45:46;;;;;;;46.77;22.50;;;5.20;99.90;;;;;;5048459;28;20199;-81
2020/12/06 09:48:12;;;;;;;48.67;23.30;;;5.30;99.90;;;;;;5048689;28;20234;-82
2020/12/06 09:50:38;;;;;;;48.87;22.97;;;5.30;99.90;;;;;;5044883;28;20266;-79
2020/12/06 09:53:03;;;;;;;49.33;23.63;;;5.30;99.90;;;;;;5052096;28;20213;-79
2020/12/06 09:55:29;;;;;;;47.43;21.03;;;5.20;99.90;;;;;;5046419;28;20219;-78
2020/12/06 09:57:54;;;;;;;58.87;25.53;;;5.30;99.90;;;;;;5043454;28;20213;-79
2020/12/06 10:00:20;;;;;;;54.13;23.67;;;5.20;99.90;;;;;;5049425;28;20191;-79
2020/12/06 10:02:45;;;;;;;45.90;22.70;;;5.10;99.90;;;;;;5042892;28;20190;-79
2020/12/06 10:05:11;;;;;;;48.50;22.50;;;5.10;99.90;;;;;;5061064;28;20233;-80
2020/12/06 10:07:37;;;;;;;49.27;22.43;;;5.10;99.90;;;;;;5044662;28;20203;-80
2020/12/06 10:10:08;;;;;;;48.77;22.43;;;5.20;99.90;;;;;;5040183;28;20187;-79
2020/12/06 10:12:34;;;;;;;53.20;23.87;;;5.30;99.90;;;;;;5059307;28;20426;-78
2020/12/06 10:14:59;;;;;;;52.70;24.00;;;5.40;99.90;;;;;;5049478;28;20217;-80
2020/12/06 10:17:25;;;;;;;47.37;20.87;;;5.30;99.90;;;;;;5052745;28;20216;-80
2020/12/06 10:19:51;;;;;;;52.10;24.10;;;5.40;99.90;;;;;;5040247;28;20223;-81
2020/12/06 10:22:16;;;;;;;48.43;23.10;;;5.40;99.90;;;;;;5048161;28;20190;-81
2020/12/06 10:24:42;;;;;;;47.77;22.40;;;5.50;99.90;;;;;;5046860;28;20284;-81
2020/12/06 10:27:07;;;;;;;49.33;22.47;;;5.50;99.90;;;;;;5047846;28;20649;-80
2020/12/06 10:29:33;;;;;;;45.40;22.63;;;5.50;99.90;;;;;;5052274;28;20192;-80
2020/12/06 10:32:00;;;;;;;52.03;23.53;;;5.50;99.90;;;;;;5050032;28;20179;-80
2020/12/06 10:34:26;;;;;;;50.70;22.87;;;5.50;99.90;;;;;;5045041;28;20269;-80
2020/12/06 10:36:54;;;;;;;60.23;26.07;;;5.40;99.90;;;;;;5065265;28;20468;-80
2020/12/06 10:39:23;;;;;;;51.97;23.30;;;5.40;99.90;;;;;;5047786;28;20567;-80
2020/12/06 10:41:52;;;;;;;50.90;22.33;;;5.40;99.90;;;;;;5047571;28;20274;-79
2020/12/06 10:44:18;;;;;;;53.37;24.30;;;5.40;99.90;;;;;;5038738;28;20307;-80
2020/12/06 10:46:44;;;;;;;48.77;22.07;;;5.40;99.90;;;;;;5040268;28;20271;-80
2020/12/06 10:49:11;;;;;;;50.50;24.13;;;5.40;99.90;;;;;;5040925;28;20187;-80
2020/12/06 10:51:41;;;;;;;52.83;23.40;;;5.40;99.90;;;;;;5041520;28;20692;-80
2020/12/06 10:54:06;;;;;;;56.60;27.00;;;5.40;99.90;;;;;;5045498;28;20518;-81
2020/12/06 10:56:32;;;;;;;53.13;24.40;;;5.50;99.90;;;;;;5075786;28;20786;-80
2020/12/06 10:58:58;;;;;;;48.03;24.00;;;5.50;99.90;;;;;;5066621;28;20665;-79
2020/12/06 11:01:28;;;;;;;45.97;22.23;;;5.60;99.90;;;;;;5046730;28;20195;-78
2020/12/06 11:03:53;;;;;;;45.97;21.50;;;5.60;99.90;;;;;;5042213;28;20192;-80
2020/12/06 11:06:20;;;;;;;50.63;24.23;;;5.60;99.90;;;;;;5042616;28;20198;-79
2020/12/06 11:08:45;;;;;;;50.97;21.97;;;5.60;99.90;;;;;;5044555;28;20197;-80
2020/12/06 11:11:17;;;;;;;49.50;21.50;;;5.60;99.90;;;;;;5040937;28;22010;-80
2020/12/06 11:13:42;;;;;;;57.93;25.83;;;5.60;99.90;;;;;;5044126;28;20211;-80
2020/12/06 11:16:08;;;;;;;46.37;20.20;;;5.60;99.90;;;;;;5034969;28;20249;-80
2020/12/06 11:18:34;;;;;;;46.40;20.60;;;5.60;99.90;;;;;;5046561;28;20186;-80
2020/12/06 11:21:00;;;;;;;56.40;27.43;;;5.70;99.90;;;;;;5045268;28;20236;-81
2020/12/06 11:23:26;;;;;;;51.43;23.47;;;5.60;99.90;;;;;;5051435;28;20183;-80
2020/12/06 11:25:52;;;;;;;46.70;23.00;;;5.60;99.90;;;;;;5057321;28;20285;-81
2020/12/06 11:28:18;;;;;;;55.27;25.20;;;5.70;99.90;;;;;;5045236;28;20176;-81
2020/12/06 11:30:44;;;;;;;48.33;22.20;;;5.60;99.90;;;;;;5038831;28;20192;-81
2020/12/06 11:33:10;;;;;;;52.50;23.87;;;5.60;99.90;;;;;;5037819;28;20185;-79
2020/12/06 11:35:36;;;;;;;50.47;22.90;;;5.70;99.90;;;;;;5044627;28;20235;-82
2020/12/06 11:38:02;;;;;;;47.43;22.10;;;5.80;99.90;;;;;;5040777;28;20238;-81
2020/12/06 11:40:27;;;;;;;42.37;19.97;;;5.80;99.90;;;;;;5036763;28;20197;-82
2020/12/06 11:42:53;;;;;;;53.87;23.67;;;5.80;99.90;;;;;;5054062;28;20185;-82
2020/12/06 11:45:18;;;;;;;52.80;23.80;;;5.70;99.90;;;;;;5071515;28;20195;-80
2020/12/06 11:47:44;;;;;;;47.90;22.07;;;5.70;99.90;;;;;;5041317;28;20716;-80
2020/12/06 11:50:09;;;;;;;50.23;22.30;;;5.80;99.90;;;;;;5041280;28;20189;-83
2020/12/06 11:52:35;;;;;;;53.93;22.83;;;5.80;99.90;;;;;;5046339;28;20185;-82
2020/12/06 11:55:00;;;;;;;51.23;24.37;;;5.80;99.90;;;;;;5037998;28;20206;-79
2020/12/06 11:57:26;;;;;;;47.73;22.23;;;5.80;99.90;;;;;;5038073;28;20190;-80
2020/12/06 11:59:52;;;;;;;57.60;25.50;;;5.80;99.90;;;;;;5041810;28;20201;-82
2020/12/06 12:02:17;;;;;;;51.83;22.60;;;5.80;99.90;;;;;;5041113;28;20186;-80
2020/12/06 12:04:43;;;;;;;53.03;22.93;;;5.80;99.90;;;;;;5041152;28;20198;-81
2020/12/06 12:07:09;;;;;;;51.37;23.00;;;5.90;99.90;;;;;;5038776;28;20613;-81
2020/12/06 12:09:35;;;;;;;59.90;26.67;;;5.90;99.90;;;;;;5038072;28;20282;-81
2020/12/06 12:12:01;;;;;;;58.30;23.83;;;5.90;99.90;;;;;;5050270;28;20179;-81
2020/12/06 12:14:26;;;;;;;55.53;24.50;;;5.90;99.90;;;;;;5058495;28;20235;-80
2020/12/06 12:16:52;;;;;;;53.77;23.83;;;5.90;99.90;;;;;;5040141;28;20173;-82
2020/12/06 12:19:17;;;;;;;51.77;23.33;;;6.00;99.90;;;;;;5048629;28;20194;-80
2020/12/06 12:21:43;;;;;;;49.00;23.13;;;6.00;99.90;;;;;;5061000;28;20678;-81
2020/12/06 12:24:09;;;;;;;57.03;24.93;;;5.90;99.90;;;;;;5035037;28;20305;-82
2020/12/06 12:26:45;;;;;;;55.30;23.07;;;6.00;99.90;;;;;;5039525;28;20611;-82
2020/12/06 12:29:11;;;;;;;56.27;23.60;;;6.10;99.90;;;;;;5044769;28;20682;-81
2020/12/06 12:31:36;;;;;;;60.37;24.83;;;6.10;99.90;;;;;;5044725;28;20191;-82
2020/12/06 12:34:02;;;;;;;61.03;25.50;;;6.00;99.90;;;;;;5048694;28;20221;-83
2020/12/06 12:36:27;;;;;;;62.00;25.40;;;6.10;99.90;;;;;;5061245;28;20197;-82
2020/12/06 12:38:53;;;;;;;52.93;23.10;;;6.10;99.90;;;;;;5050353;28;20182;-82